createdAt,value
2018-08-19T00:00:11.272Z,7.9
2018-08-19T00:01:12.886Z,7.9
2018-08-19T00:02:14.389Z,7.8
2018-08-19T00:03:15.824Z,7.9
2018-08-19T00:04:17.107Z,7.9
2018-08-19T00:05:18.561Z,7.9
2018-08-19T00:06:20.154Z,7.9
2018-08-19T00:07:21.602Z,7.8
2018-08-19T00:08:23.206Z,7.8
2018-08-19T00:09:24.634Z,7.8
2018-08-19T00:10:26.222Z,7.9
2018-08-19T00:11:27.824Z,7.8
2018-08-19T00:12:29.267Z,7.9
2018-08-19T00:13:30.537Z,7.8
2018-08-19T00:14:32.132Z,7.9
2018-08-19T00:15:33.729Z,7.9
2018-08-19T00:16:35.317Z,7.8
2018-08-19T00:17:36.750Z,7.8
2018-08-19T00:18:38.369Z,7.8
2018-08-19T00:19:39.973Z,7.8
2018-08-19T00:20:41.600Z,7.8
2018-08-19T00:21:43.140Z,7.8
2018-08-19T00:22:44.631Z,7.8
2018-08-19T00:23:46.257Z,7.8
2018-08-19T00:24:47.711Z,7.8
2018-08-19T00:25:49.319Z,7.8
2018-08-19T00:26:50.917Z,7.8
2018-08-19T00:27:52.176Z,7.8
2018-08-19T00:28:53.607Z,7.8
2018-08-19T00:29:55.049Z,7.8
2018-08-19T00:30:56.656Z,7.8
2018-08-19T00:31:58.289Z,7.8
2018-08-19T00:32:59.727Z,7.8
2018-08-19T00:34:01.158Z,7.8
2018-08-19T00:35:02.609Z,7.8
2018-08-19T00:36:04.049Z,7.8
2018-08-19T00:37:05.657Z,7.8
2018-08-19T00:38:07.128Z,7.8
2018-08-19T00:39:08.570Z,7.8
2018-08-19T00:40:09.841Z,7.8
2018-08-19T00:41:11.266Z,7.8
2018-08-19T00:42:12.869Z,7.8
2018-08-19T00:43:14.307Z,7.8
2018-08-19T00:44:15.912Z,7.8
2018-08-19T00:45:17.346Z,7.8
2018-08-19T00:46:18.785Z,7.8
2018-08-19T00:47:20.389Z,7.8
2018-08-19T00:48:21.974Z,7.8
2018-08-19T00:49:23.405Z,7.8
2018-08-19T00:50:25.027Z,7.8
2018-08-19T00:51:26.623Z,7.8
2018-08-19T00:52:28.120Z,7.8
2018-08-19T00:53:29.733Z,7.8
2018-08-19T00:54:31.329Z,7.8
2018-08-19T00:55:32.951Z,7.8
2018-08-19T00:56:34.398Z,7.8
2018-08-19T00:57:36.058Z,7.8
2018-08-19T00:58:37.666Z,7.8
2018-08-19T00:59:39.114Z,7.8
2018-08-19T01:00:40.546Z,7.8
2018-08-19T01:01:41.828Z,7.8
2018-08-19T01:02:43.442Z,7.8
2018-08-19T01:03:44.884Z,7.8
2018-08-19T01:04:46.468Z,7.8
2018-08-19T01:05:48.092Z,7.8
2018-08-19T01:06:49.361Z,7.8
2018-08-19T01:07:50.642Z,7.8
2018-08-19T01:08:52.248Z,7.8
2018-08-19T01:09:53.540Z,7.8
2018-08-19T01:10:54.982Z,7.8
2018-08-19T01:11:56.433Z,7.8
2018-08-19T01:12:58.031Z,7.8
2018-08-19T01:13:59.631Z,7.8
2018-08-19T01:15:01.247Z,7.8
2018-08-19T01:16:02.695Z,7.8
2018-08-19T01:17:03.963Z,7.8
2018-08-19T01:18:05.570Z,7.7
2018-08-19T01:19:07.180Z,7.7
2018-08-19T01:20:08.788Z,7.7
2018-08-19T01:21:10.241Z,7.6
2018-08-19T01:22:11.674Z,7.5
2018-08-19T01:23:13.279Z,7.5
2018-08-19T01:24:14.729Z,7.4
2018-08-19T01:25:16.166Z,7.3
2018-08-19T01:26:17.750Z,7.2
2018-08-19T01:27:19.358Z,7.2
2018-08-19T01:28:20.955Z,7.2
2018-08-19T01:29:22.556Z,7.2
2018-08-19T01:30:24.127Z,7.2
2018-08-19T01:31:25.726Z,7.2
2018-08-19T01:32:27.316Z,7.2
2018-08-19T01:33:28.915Z,7.2
2018-08-19T01:34:30.355Z,7.2
2018-08-19T01:35:31.451Z,7.2
2018-08-19T01:36:32.550Z,7.2
2018-08-19T01:37:34.154Z,7.2
2018-08-19T01:38:35.432Z,7.2
2018-08-19T01:39:37.020Z,7.2
2018-08-19T01:40:38.456Z,7.2
2018-08-19T01:41:39.895Z,7.2
2018-08-19T01:42:41.489Z,7.2
2018-08-19T01:43:42.781Z,7.2
2018-08-19T01:44:44.230Z,7.2
2018-08-19T01:45:45.833Z,7.2
2018-08-19T01:46:51.605Z,7.2
2018-08-19T01:47:53.213Z,7.2
2018-08-19T01:48:54.816Z,7.2
2018-08-19T01:49:56.258Z,7.2
2018-08-19T01:50:57.536Z,7.2
2018-08-19T01:51:58.961Z,7.2
2018-08-19T01:53:00.238Z,7.2
2018-08-19T01:54:01.832Z,7.2
2018-08-19T01:55:03.281Z,7.2
2018-08-19T01:56:04.892Z,7.2
2018-08-19T01:57:06.507Z,7.2
2018-08-19T01:58:07.949Z,7.2
2018-08-19T01:59:09.584Z,7.2
2018-08-19T02:00:11.022Z,7.2
2018-08-19T02:01:12.640Z,7.2
2018-08-19T02:02:14.230Z,7.2
2018-08-19T02:03:15.828Z,7.2
2018-08-19T02:04:17.428Z,7.2
2018-08-19T02:05:18.851Z,7.2
2018-08-19T02:06:20.451Z,7.2
2018-08-19T02:07:21.552Z,7.2
2018-08-19T02:08:23.000Z,7.2
2018-08-19T02:09:24.443Z,7.2
2018-08-19T02:10:25.864Z,7.2
2018-08-19T02:11:27.454Z,7.2
2018-08-19T02:12:29.065Z,7.2
2018-08-19T02:13:30.661Z,7.2
2018-08-19T02:14:32.136Z,7.2
2018-08-19T02:15:33.571Z,7.3
2018-08-19T02:16:35.163Z,7.3
2018-08-19T02:17:36.774Z,7.3
2018-08-19T02:18:38.394Z,7.3
2018-08-19T02:19:39.842Z,7.3
2018-08-19T02:20:41.849Z,7.3
2018-08-19T02:21:43.258Z,7.3
2018-08-19T02:22:44.706Z,7.3
2018-08-19T02:23:46.320Z,7.4
2018-08-19T02:24:47.758Z,7.4
2018-08-19T02:25:49.353Z,7.4
2018-08-19T02:26:50.964Z,7.4
2018-08-19T02:27:52.582Z,7.4
2018-08-19T02:28:54.181Z,7.5
2018-08-19T02:29:55.636Z,7.5
2018-08-19T02:30:57.245Z,7.5
2018-08-19T02:31:58.687Z,7.6
2018-08-19T02:33:00.284Z,7.6
2018-08-19T02:34:01.717Z,7.7
2018-08-19T02:35:03.294Z,7.7
2018-08-19T02:36:04.924Z,7.7
2018-08-19T02:37:06.528Z,7.7
2018-08-19T02:38:08.126Z,7.8
2018-08-19T02:39:09.728Z,7.8
2018-08-19T02:40:11.168Z,7.8
2018-08-19T02:41:12.773Z,7.8
2018-08-19T02:42:14.071Z,7.8
2018-08-19T02:43:15.506Z,7.8
2018-08-19T02:44:17.107Z,7.9
2018-08-19T02:45:18.715Z,7.8
2018-08-19T02:46:20.150Z,7.8
2018-08-19T02:47:21.601Z,7.8
2018-08-19T02:48:23.186Z,7.8
2018-08-19T02:49:24.788Z,7.8
2018-08-19T02:50:26.388Z,7.8
2018-08-19T02:51:27.992Z,7.8
2018-08-19T02:52:29.429Z,7.8
2018-08-19T02:53:30.862Z,7.8
2018-08-19T02:54:32.485Z,7.8
2018-08-19T02:55:33.917Z,7.8
2018-08-19T02:56:35.502Z,7.8
2018-08-19T02:57:36.949Z,7.8
2018-08-19T02:58:38.384Z,7.9
2018-08-19T02:59:39.816Z,7.9
2018-08-19T03:00:41.412Z,7.9
2018-08-19T03:01:42.833Z,7.9
2018-08-19T03:02:44.271Z,7.9
2018-08-19T03:03:45.696Z,7.8
2018-08-19T03:04:47.137Z,7.8
2018-08-19T03:05:48.720Z,7.8
2018-08-19T03:06:50.329Z,7.8
2018-08-19T03:07:51.606Z,7.8
2018-08-19T03:08:53.195Z,7.8
2018-08-19T03:09:54.795Z,7.8
2018-08-19T03:10:56.209Z,7.8
2018-08-19T03:11:57.636Z,7.8
2018-08-19T03:12:59.079Z,7.8
2018-08-19T03:14:00.692Z,7.8
2018-08-19T03:15:02.691Z,7.8
2018-08-19T03:16:04.150Z,7.8
2018-08-19T03:17:05.576Z,7.8
2018-08-19T03:18:07.017Z,7.8
2018-08-19T03:19:08.629Z,7.9
2018-08-19T03:20:10.250Z,7.9
2018-08-19T03:21:11.878Z,7.9
2018-08-19T03:22:13.486Z,7.8
2018-08-19T03:23:15.086Z,7.8
2018-08-19T03:24:16.683Z,7.8
2018-08-19T03:25:18.115Z,7.8
2018-08-19T03:26:19.553Z,7.8
2018-08-19T03:27:21.135Z,7.7
2018-08-19T03:28:22.569Z,7.7
2018-08-19T03:29:24.018Z,7.6
2018-08-19T03:30:25.626Z,7.5
2018-08-19T03:31:27.221Z,7.4
2018-08-19T03:32:28.678Z,7.4
2018-08-19T03:33:30.323Z,7.3
2018-08-19T03:34:31.803Z,7.2
2018-08-19T03:35:33.397Z,7.2
2018-08-19T03:36:34.867Z,7.2
2018-08-19T03:37:36.516Z,7.2
2018-08-19T03:38:38.120Z,7.2
2018-08-19T03:39:39.756Z,7.2
2018-08-19T03:40:41.376Z,7.2
2018-08-19T03:41:42.981Z,7.2
2018-08-19T03:42:44.574Z,7.2
2018-08-19T03:43:46.164Z,7.2
2018-08-19T03:44:47.620Z,7.2
2018-08-19T03:45:49.228Z,7.2
2018-08-19T03:46:50.705Z,7.2
2018-08-19T03:47:52.144Z,7.2
2018-08-19T03:49:08.414Z,7.2
2018-08-19T03:50:09.683Z,7.2
2018-08-19T03:51:11.287Z,7.2
2018-08-19T03:52:12.892Z,7.2
2018-08-19T03:53:14.521Z,7.2
2018-08-19T03:54:15.797Z,7.2
2018-08-19T03:55:17.385Z,7.2
2018-08-19T03:56:18.993Z,7.2
2018-08-19T03:57:20.594Z,7.2
2018-08-19T03:58:22.203Z,7.2
2018-08-19T03:59:23.302Z,7.2
2018-08-19T04:00:24.727Z,7.2
2018-08-19T04:01:26.361Z,7.2
2018-08-19T04:02:27.964Z,7.2
2018-08-19T04:03:29.591Z,7.2
2018-08-19T04:04:31.195Z,7.3
2018-08-19T04:05:32.787Z,7.3
2018-08-19T04:06:34.222Z,7.3
2018-08-19T04:07:35.803Z,7.3
2018-08-19T04:08:37.388Z,7.3
2018-08-19T04:09:38.989Z,7.3
2018-08-19T04:10:40.416Z,7.3
2018-08-19T04:11:41.710Z,7.3
2018-08-19T04:12:43.325Z,7.3
2018-08-19T04:13:44.975Z,7.3
2018-08-19T04:14:46.591Z,7.4
2018-08-19T04:15:48.192Z,7.4
2018-08-19T04:16:49.805Z,7.4
2018-08-19T04:17:51.406Z,7.4
2018-08-19T04:18:53.002Z,7.4
2018-08-19T04:19:54.439Z,7.5
2018-08-19T04:20:56.037Z,7.5
2018-08-19T04:21:57.298Z,7.6
2018-08-19T04:22:58.906Z,7.6
2018-08-19T04:24:00.348Z,7.7
2018-08-19T04:25:01.959Z,7.7
2018-08-19T04:26:03.427Z,7.7
2018-08-19T04:27:05.033Z,7.8
2018-08-19T04:28:06.538Z,7.8
2018-08-19T04:29:08.131Z,7.8
2018-08-19T04:30:09.726Z,7.8
2018-08-19T04:31:11.341Z,7.8
2018-08-19T04:32:12.986Z,7.8
2018-08-19T04:33:14.584Z,7.8
2018-08-19T04:34:16.009Z,7.8
2018-08-19T04:35:17.603Z,7.8
2018-08-19T04:36:19.192Z,7.8
2018-08-19T04:37:20.806Z,7.8
2018-08-19T04:38:22.405Z,7.8
2018-08-19T04:39:23.656Z,7.8
2018-08-19T04:40:25.280Z,7.8
2018-08-19T04:41:26.900Z,7.8
2018-08-19T04:42:28.683Z,7.8
2018-08-19T04:43:30.281Z,7.9
2018-08-19T04:44:31.610Z,7.8
2018-08-19T04:45:33.031Z,7.8
2018-08-19T04:46:34.492Z,7.9
2018-08-19T04:47:35.640Z,7.9
2018-08-19T04:48:37.093Z,7.9
2018-08-19T04:49:38.709Z,7.9
2018-08-19T04:50:40.298Z,7.8
2018-08-19T04:51:41.892Z,7.8
2018-08-19T04:52:43.325Z,7.8
2018-08-19T04:53:44.925Z,7.8
2018-08-19T04:54:46.530Z,7.8
2018-08-19T04:55:47.970Z,7.8
2018-08-19T04:56:49.588Z,7.8
2018-08-19T04:57:51.196Z,7.8
2018-08-19T04:58:52.622Z,7.8
2018-08-19T04:59:54.074Z,7.8
2018-08-19T05:00:55.670Z,7.8
2018-08-19T05:01:57.395Z,7.8
2018-08-19T05:02:58.670Z,7.8
2018-08-19T05:04:00.263Z,7.9
2018-08-19T05:05:01.879Z,7.9
2018-08-19T05:06:03.330Z,7.8
2018-08-19T05:07:04.612Z,7.8
2018-08-19T05:08:06.659Z,7.8
2018-08-19T05:09:07.926Z,7.8
2018-08-19T05:10:09.537Z,7.8
2018-08-19T05:11:11.145Z,7.8
2018-08-19T05:12:12.610Z,7.8
2018-08-19T05:13:14.222Z,7.8
2018-08-19T05:14:15.840Z,7.8
2018-08-19T05:15:17.436Z,7.8
2018-08-19T05:16:18.710Z,7.8
2018-08-19T05:17:20.173Z,7.8
2018-08-19T05:18:21.775Z,7.8
2018-08-19T05:19:23.207Z,7.8
2018-08-19T05:20:24.651Z,7.8
2018-08-19T05:21:26.266Z,7.8
2018-08-19T05:22:27.691Z,7.8
2018-08-19T05:23:29.324Z,7.8
2018-08-19T05:24:30.937Z,7.8
2018-08-19T05:25:32.551Z,7.8
2018-08-19T05:26:34.150Z,7.8
2018-08-19T05:27:35.779Z,7.8
2018-08-19T05:28:37.382Z,7.8
2018-08-19T05:29:39.007Z,7.8
2018-08-19T05:30:40.616Z,7.8
2018-08-19T05:31:42.709Z,7.8
2018-08-19T05:32:44.320Z,7.8
2018-08-19T05:33:45.929Z,7.8
2018-08-19T05:34:47.545Z,7.8
2018-08-19T05:35:48.988Z,7.8
2018-08-19T05:36:50.101Z,7.7
2018-08-19T05:37:51.547Z,7.7
2018-08-19T05:38:52.834Z,7.6
2018-08-19T05:39:54.256Z,7.5
2018-08-19T05:40:55.698Z,7.4
2018-08-19T05:41:57.140Z,7.3
2018-08-19T05:42:58.746Z,7.2
2018-08-19T05:44:00.357Z,7.2
2018-08-19T05:45:01.957Z,7.2
2018-08-19T05:46:03.576Z,7.2
2018-08-19T05:47:05.544Z,7.2
2018-08-19T05:48:07.157Z,7.2
2018-08-19T05:49:08.440Z,7.2
2018-08-19T05:50:09.886Z,7.2
2018-08-19T05:51:11.476Z,7.2
2018-08-19T05:52:12.920Z,7.2
2018-08-19T05:53:14.344Z,7.2
2018-08-19T05:54:15.788Z,7.2
2018-08-19T05:55:17.398Z,7.2
2018-08-19T05:56:18.831Z,7.2
2018-08-19T05:57:20.429Z,7.2
2018-08-19T05:58:22.024Z,7.2
2018-08-19T05:59:23.641Z,7.2
2018-08-19T06:00:24.921Z,7.2
2018-08-19T06:01:26.520Z,7.2
2018-08-19T06:02:28.152Z,7.2
2018-08-19T06:03:29.759Z,7.2
2018-08-19T06:04:31.377Z,7.2
2018-08-19T06:05:32.966Z,7.2
2018-08-19T06:06:34.578Z,7.2
2018-08-19T06:07:36.422Z,7.2
2018-08-19T06:08:38.016Z,7.2
2018-08-19T06:09:39.611Z,7.2
2018-08-19T06:10:41.219Z,7.2
2018-08-19T06:11:42.847Z,7.2
2018-08-19T06:12:44.437Z,7.2
2018-08-19T06:13:46.030Z,7.2
2018-08-19T06:14:47.660Z,7.2
2018-08-19T06:15:49.598Z,7.2
2018-08-19T06:16:51.056Z,7.2
2018-08-19T06:17:52.518Z,7.2
2018-08-19T06:18:54.127Z,7.2
2018-08-19T06:19:55.727Z,7.2
2018-08-19T06:20:57.327Z,7.2
2018-08-19T06:21:59.416Z,7.2
2018-08-19T06:23:00.881Z,7.2
2018-08-19T06:24:02.479Z,7.2
2018-08-19T06:25:03.585Z,7.2
2018-08-19T06:26:05.024Z,7.2
2018-08-19T06:27:06.631Z,7.2
2018-08-19T06:28:07.918Z,7.3
2018-08-19T06:29:09.371Z,7.3
2018-08-19T06:30:10.651Z,7.3
2018-08-19T06:31:12.971Z,7.3
2018-08-19T06:32:14.364Z,7.3
2018-08-19T06:33:15.642Z,7.3
2018-08-19T06:34:17.256Z,7.3
2018-08-19T06:35:18.868Z,7.3
2018-08-19T06:36:20.482Z,7.4
2018-08-19T06:37:21.958Z,7.4
2018-08-19T06:38:23.579Z,7.4
2018-08-19T06:39:25.021Z,7.4
2018-08-19T06:40:26.336Z,7.4
2018-08-19T06:41:27.966Z,7.4
2018-08-19T06:42:29.414Z,7.4
2018-08-19T06:43:30.870Z,7.5
2018-08-19T06:44:32.484Z,7.5
2018-08-19T06:45:34.099Z,7.5
2018-08-19T06:46:35.719Z,7.6
2018-08-19T06:47:37.311Z,7.6
2018-08-19T06:48:38.765Z,7.6
2018-08-19T06:49:40.356Z,7.6
2018-08-19T06:50:41.946Z,7.7
2018-08-19T06:51:43.554Z,7.7
2018-08-19T06:52:45.153Z,7.7
2018-08-19T06:53:46.769Z,7.8
2018-08-19T06:54:48.207Z,7.8
2018-08-19T06:55:49.666Z,7.8
2018-08-19T06:56:51.123Z,7.8
2018-08-19T06:57:52.731Z,7.8
2018-08-19T06:58:54.330Z,7.8
2018-08-19T06:59:55.939Z,7.8
2018-08-19T07:00:57.561Z,7.8
2018-08-19T07:01:59.256Z,7.8
2018-08-19T07:03:00.831Z,7.8
2018-08-19T07:04:03.128Z,7.8
2018-08-19T07:05:04.794Z,7.8
2018-08-19T07:06:06.589Z,7.8
2018-08-19T07:07:08.280Z,7.8
2018-08-19T07:08:10.121Z,7.8
2018-08-19T07:09:11.759Z,7.8
2018-08-19T07:10:13.482Z,7.8
2018-08-19T07:11:15.233Z,7.8
2018-08-19T07:12:16.775Z,7.8
2018-08-19T07:13:18.392Z,7.8
2018-08-19T07:14:19.831Z,7.8
2018-08-19T07:15:21.361Z,7.8
2018-08-19T07:16:22.808Z,7.8
2018-08-19T07:17:24.397Z,7.7
2018-08-19T07:18:26.000Z,7.7
2018-08-19T07:19:27.466Z,7.7
2018-08-19T07:20:29.074Z,7.7
2018-08-19T07:21:30.554Z,7.7
2018-08-19T07:22:32.183Z,7.7
2018-08-19T07:23:33.536Z,7.7
2018-08-19T07:24:35.157Z,7.7
2018-08-19T07:25:36.761Z,7.7
2018-08-19T07:26:38.049Z,7.7
2018-08-19T07:27:39.657Z,7.7
2018-08-19T07:28:40.935Z,7.7
2018-08-19T07:29:42.831Z,7.8
2018-08-19T07:30:44.432Z,7.8
2018-08-19T07:31:46.051Z,7.8
2018-08-19T07:32:47.325Z,7.8
2018-08-19T07:33:48.941Z,7.8
2018-08-19T07:34:50.377Z,7.8
2018-08-19T07:35:51.799Z,7.8
2018-08-19T07:36:53.712Z,7.8
2018-08-19T07:37:55.267Z,7.8
2018-08-19T07:38:56.873Z,7.8
2018-08-19T07:39:58.295Z,7.8
2018-08-19T07:40:59.888Z,7.8
2018-08-19T07:42:01.487Z,7.8
2018-08-19T07:43:02.938Z,7.8
2018-08-19T07:44:04.757Z,7.8
2018-08-19T07:45:06.203Z,7.8
2018-08-19T07:46:07.639Z,7.8
2018-08-19T07:47:09.277Z,7.8
2018-08-19T07:48:10.896Z,7.8
2018-08-19T07:49:12.195Z,7.7
2018-08-19T07:50:13.483Z,7.7
2018-08-19T07:51:15.290Z,7.7
2018-08-19T07:52:16.943Z,7.6
2018-08-19T07:53:18.556Z,7.5
2018-08-19T07:54:19.991Z,7.4
2018-08-19T07:55:21.590Z,7.3
2018-08-19T07:56:23.188Z,7.2
2018-08-19T07:57:24.798Z,7.2
2018-08-19T07:58:26.403Z,7.2
2018-08-19T07:59:28.006Z,7.2
2018-08-19T08:00:29.447Z,7.2
2018-08-19T08:01:31.926Z,7.2
2018-08-19T08:02:33.616Z,7.2
2018-08-19T08:03:35.221Z,7.2
2018-08-19T08:04:36.648Z,7.2
2018-08-19T08:05:37.771Z,7.2
2018-08-19T08:06:39.237Z,7.2
2018-08-19T08:07:40.842Z,7.2
2018-08-19T08:08:42.447Z,7.2
2018-08-19T08:09:43.715Z,7.2
2018-08-19T08:10:45.048Z,7.2
2018-08-19T08:11:46.330Z,7.2
2018-08-19T08:12:47.771Z,7.2
2018-08-19T08:13:49.593Z,7.2
2018-08-19T08:14:50.676Z,7.2
2018-08-19T08:15:52.115Z,7.2
2018-08-19T08:16:53.557Z,7.2
2018-08-19T08:17:55.203Z,7.2
2018-08-19T08:18:56.637Z,7.2
2018-08-19T08:19:58.077Z,7.2
2018-08-19T08:20:59.677Z,7.2
2018-08-19T08:22:01.287Z,7.2
2018-08-19T08:23:02.909Z,7.3
2018-08-19T08:24:04.360Z,7.3
2018-08-19T08:25:05.977Z,7.3
2018-08-19T08:26:07.576Z,7.3
2018-08-19T08:27:09.166Z,7.3
2018-08-19T08:28:10.777Z,7.3
2018-08-19T08:29:12.880Z,7.3
2018-08-19T08:30:14.386Z,7.4
2018-08-19T08:31:16.241Z,7.4
2018-08-19T08:32:17.707Z,7.4
2018-08-19T08:33:19.162Z,7.4
2018-08-19T08:34:20.957Z,7.4
2018-08-19T08:35:22.640Z,7.4
2018-08-19T08:36:23.914Z,7.4
2018-08-19T08:37:25.360Z,7.4
2018-08-19T08:38:26.502Z,7.4
2018-08-19T08:39:28.148Z,7.4
2018-08-19T08:40:29.849Z,7.5
2018-08-19T08:41:31.302Z,7.5
2018-08-19T08:42:32.906Z,7.5
2018-08-19T08:43:34.534Z,7.5
2018-08-19T08:44:36.315Z,7.5
2018-08-19T08:45:37.910Z,7.6
2018-08-19T08:46:39.007Z,7.6
2018-08-19T08:47:41.547Z,7.6
2018-08-19T08:48:42.550Z,7.6
2018-08-19T08:49:44.152Z,7.6
2018-08-19T08:50:45.626Z,7.7
2018-08-19T08:51:47.291Z,7.7
2018-08-19T08:52:48.770Z,7.7
2018-08-19T08:53:50.391Z,7.7
2018-08-19T08:54:51.832Z,7.7
2018-08-19T08:55:53.448Z,7.8
2018-08-19T08:56:55.035Z,7.8
2018-08-19T08:57:56.465Z,7.8
2018-08-19T08:58:57.904Z,7.8
2018-08-19T08:59:59.503Z,7.8
2018-08-19T09:01:01.107Z,7.8
2018-08-19T09:02:02.697Z,7.8
2018-08-19T09:03:04.496Z,7.8
2018-08-19T09:04:06.118Z,7.8
2018-08-19T09:05:07.725Z,7.8
2018-08-19T09:06:09.348Z,7.8
2018-08-19T09:07:10.627Z,7.8
2018-08-19T09:08:12.236Z,7.8
2018-08-19T09:09:13.848Z,7.8
2018-08-19T09:10:15.316Z,7.8
2018-08-19T09:11:16.751Z,7.8
2018-08-19T09:12:18.365Z,7.8
2018-08-19T09:13:20.008Z,7.8
2018-08-19T09:14:21.445Z,7.8
2018-08-19T09:15:23.055Z,7.8
2018-08-19T09:16:24.654Z,7.8
2018-08-19T09:17:26.120Z,7.8
2018-08-19T09:18:27.553Z,7.8
2018-08-19T09:19:29.153Z,7.8
2018-08-19T09:20:30.252Z,7.8
2018-08-19T09:21:31.864Z,7.8
2018-08-19T09:22:33.310Z,7.8
2018-08-19T09:23:34.945Z,7.8
2018-08-19T09:24:36.240Z,7.8
2018-08-19T09:25:37.849Z,7.8
2018-08-19T09:26:39.528Z,7.8
2018-08-19T09:27:41.030Z,7.8
2018-08-19T09:28:42.668Z,7.8
2018-08-19T09:29:44.274Z,7.8
2018-08-19T09:30:45.937Z,7.8
2018-08-19T09:31:47.543Z,7.8
2018-08-19T09:32:49.095Z,7.8
2018-08-19T09:33:50.713Z,7.8
2018-08-19T09:34:52.325Z,7.8
2018-08-19T09:35:53.763Z,7.8
2018-08-19T09:36:55.389Z,7.8
2018-08-19T09:37:56.985Z,7.8
2018-08-19T09:38:58.620Z,7.8
2018-08-19T09:40:00.231Z,7.8
2018-08-19T09:41:01.862Z,7.8
2018-08-19T09:42:03.144Z,7.8
2018-08-19T09:43:04.743Z,7.8
2018-08-19T09:44:06.193Z,7.8
2018-08-19T09:45:07.641Z,7.8
2018-08-19T09:46:09.256Z,7.8
2018-08-19T09:47:10.717Z,7.8
2018-08-19T09:48:12.337Z,7.8
2018-08-19T09:49:13.636Z,7.8
2018-08-19T09:50:15.399Z,7.8
2018-08-19T09:51:17.122Z,7.8
2018-08-19T09:52:18.745Z,7.8
2018-08-19T09:53:20.176Z,7.8
2018-08-19T09:54:21.457Z,7.8
2018-08-19T09:55:23.101Z,7.8
2018-08-19T09:56:24.743Z,7.8
2018-08-19T09:57:26.229Z,7.8
2018-08-19T09:58:27.888Z,7.8
2018-08-19T09:59:29.494Z,7.8
2018-08-19T10:00:30.776Z,7.8
2018-08-19T10:01:32.769Z,7.8
2018-08-19T10:02:34.256Z,7.7
2018-08-19T10:03:35.878Z,7.7
2018-08-19T10:04:37.494Z,7.7
2018-08-19T10:05:38.943Z,7.6
2018-08-19T10:06:40.373Z,7.5
2018-08-19T10:07:42.087Z,7.4
2018-08-19T10:08:43.740Z,7.4
2018-08-19T10:09:45.205Z,7.2
2018-08-19T10:10:46.846Z,7.2
2018-08-19T10:11:48.285Z,7.2
2018-08-19T10:12:49.728Z,7.2
2018-08-19T10:13:51.362Z,7.2
2018-08-19T10:14:52.808Z,7.2
2018-08-19T10:15:54.261Z,7.2
2018-08-19T10:16:55.874Z,7.2
2018-08-19T10:17:57.356Z,7.2
2018-08-19T10:18:58.801Z,7.2
2018-08-19T10:20:00.266Z,7.2
2018-08-19T10:21:01.778Z,7.2
2018-08-19T10:22:03.053Z,7.2
2018-08-19T10:23:04.645Z,7.2
2018-08-19T10:24:05.928Z,7.2
2018-08-19T10:25:07.370Z,7.2
2018-08-19T10:26:08.976Z,7.2
2018-08-19T10:27:10.444Z,7.2
2018-08-19T10:28:11.725Z,7.2
2018-08-19T10:29:13.342Z,7.2
2018-08-19T10:30:15.017Z,7.2
2018-08-19T10:31:16.795Z,7.2
2018-08-19T10:32:18.397Z,7.2
2018-08-19T10:33:19.984Z,7.2
2018-08-19T10:34:21.439Z,7.2
2018-08-19T10:35:23.051Z,7.2
2018-08-19T10:36:24.664Z,7.2
2018-08-19T10:37:26.267Z,7.2
2018-08-19T10:38:27.899Z,7.2
2018-08-19T10:39:29.528Z,7.2
2018-08-19T10:40:31.124Z,7.2
2018-08-19T10:41:32.602Z,7.2
2018-08-19T10:42:34.215Z,7.2
2018-08-19T10:43:35.880Z,7.2
2018-08-19T10:44:37.491Z,7.3
2018-08-19T10:45:39.144Z,7.3
2018-08-19T10:46:40.581Z,7.3
2018-08-19T10:47:42.198Z,7.3
2018-08-19T10:48:43.628Z,7.3
2018-08-19T10:49:45.229Z,7.3
2018-08-19T10:50:46.828Z,7.3
2018-08-19T10:51:48.285Z,7.3
2018-08-19T10:52:49.729Z,7.3
2018-08-19T10:53:51.344Z,7.3
2018-08-19T10:54:52.955Z,7.4
2018-08-19T10:55:54.562Z,7.4
2018-08-19T10:56:56.167Z,7.4
2018-08-19T10:57:57.796Z,7.5
2018-08-19T10:58:59.402Z,7.5
2018-08-19T11:00:00.899Z,7.5
2018-08-19T11:01:02.175Z,7.6
2018-08-19T11:02:03.772Z,7.6
2018-08-19T11:03:05.401Z,7.7
2018-08-19T11:04:06.882Z,7.7
2018-08-19T11:05:08.333Z,7.7
2018-08-19T11:06:09.937Z,7.8
2018-08-19T11:07:11.550Z,7.8
2018-08-19T11:08:13.002Z,7.8
2018-08-19T11:09:14.630Z,7.8
2018-08-19T11:10:16.255Z,7.8
2018-08-19T11:11:17.862Z,7.8
2018-08-19T11:12:19.483Z,7.8
2018-08-19T11:13:21.398Z,7.8
2018-08-19T11:14:22.853Z,7.8
2018-08-19T11:15:24.450Z,7.8
2018-08-19T11:16:26.077Z,7.8
2018-08-19T11:17:27.517Z,7.8
2018-08-19T11:18:29.140Z,7.8
2018-08-19T11:19:30.617Z,7.8
2018-08-19T11:20:32.275Z,7.8
2018-08-19T11:21:33.896Z,7.8
2018-08-19T11:22:35.507Z,7.8
2018-08-19T11:23:36.939Z,7.8
2018-08-19T11:24:38.603Z,7.8
2018-08-19T11:25:40.249Z,7.8
2018-08-19T11:26:41.709Z,7.8
2018-08-19T11:27:43.464Z,7.8
2018-08-19T11:28:45.076Z,7.8
2018-08-19T11:29:46.183Z,7.8
2018-08-19T11:30:47.626Z,7.8
2018-08-19T11:31:49.067Z,7.8
2018-08-19T11:32:50.491Z,7.8
2018-08-19T11:33:52.515Z,7.8
2018-08-19T11:34:54.123Z,7.8
2018-08-19T11:35:55.397Z,7.8
2018-08-19T11:36:56.839Z,7.8
2018-08-19T11:37:58.427Z,7.8
2018-08-19T11:38:59.880Z,7.8
2018-08-19T11:40:01.491Z,7.8
2018-08-19T11:41:02.782Z,7.8
2018-08-19T11:42:04.243Z,7.8
2018-08-19T11:43:05.867Z,7.8
2018-08-19T11:44:07.487Z,7.8
2018-08-19T11:45:09.102Z,7.8
2018-08-19T11:46:10.697Z,7.8
2018-08-19T11:47:12.294Z,7.8
2018-08-19T11:48:13.726Z,7.8
2018-08-19T11:49:15.164Z,7.8
2018-08-19T11:50:16.784Z,7.8
2018-08-19T11:51:18.094Z,7.8
2018-08-19T11:52:19.376Z,7.8
2018-08-19T11:53:20.977Z,7.8
2018-08-19T11:54:22.442Z,7.8
2018-08-19T11:55:24.698Z,7.8
2018-08-19T11:56:26.326Z,7.8
2018-08-19T11:57:27.952Z,7.8
2018-08-19T11:58:29.405Z,7.8
2018-08-19T11:59:31.008Z,7.7
2018-08-19T12:00:32.611Z,7.7
2018-08-19T12:01:34.215Z,7.6
2018-08-19T12:02:35.847Z,7.6
2018-08-19T12:03:37.471Z,7.5
2018-08-19T12:04:39.084Z,7.4
2018-08-19T12:05:40.700Z,7.3
2018-08-19T12:06:42.325Z,7.3
2018-08-19T12:07:43.937Z,7.2
2018-08-19T12:08:45.565Z,7.2
2018-08-19T12:09:48.052Z,7.2
2018-08-19T12:10:49.750Z,7.2
2018-08-19T12:11:51.374Z,7.2
2018-08-19T12:12:52.826Z,7.2
2018-08-19T12:13:54.490Z,7.2
2018-08-19T12:14:55.917Z,7.2
2018-08-19T12:15:57.356Z,7.2
2018-08-19T12:16:59.449Z,7.2
2018-08-19T12:18:00.935Z,7.2
2018-08-19T12:19:02.382Z,7.2
2018-08-19T12:20:04.019Z,7.2
2018-08-19T12:21:05.642Z,7.2
2018-08-19T12:22:07.256Z,7.2
2018-08-19T12:23:08.840Z,7.2
2018-08-19T12:24:10.435Z,7.2
2018-08-19T12:25:11.867Z,7.2
2018-08-19T12:26:13.310Z,7.2
2018-08-19T12:27:15.246Z,7.2
2018-08-19T12:28:16.871Z,7.2
2018-08-19T12:29:18.140Z,7.2
2018-08-19T12:30:19.774Z,7.2
2018-08-19T12:31:21.389Z,7.2
2018-08-19T12:32:23.006Z,7.2
2018-08-19T12:33:24.621Z,7.2
2018-08-19T12:34:26.142Z,7.2
2018-08-19T12:35:27.594Z,7.2
2018-08-19T12:36:29.208Z,7.3
2018-08-19T12:37:31.505Z,7.2
2018-08-19T12:38:33.168Z,7.2
2018-08-19T12:39:34.768Z,7.2
2018-08-19T12:40:36.386Z,7.3
2018-08-19T12:41:37.822Z,7.3
2018-08-19T12:42:39.431Z,7.3
2018-08-19T12:43:40.894Z,7.3
2018-08-19T12:44:42.754Z,7.3
2018-08-19T12:45:44.386Z,7.4
2018-08-19T12:46:45.651Z,7.4
2018-08-19T12:47:47.082Z,7.4
2018-08-19T12:48:48.695Z,7.4
2018-08-19T12:49:50.302Z,7.5
2018-08-19T12:50:51.932Z,7.5
2018-08-19T12:51:53.531Z,7.5
2018-08-19T12:52:55.138Z,7.6
2018-08-19T12:53:56.748Z,7.6
2018-08-19T12:54:58.350Z,7.6
2018-08-19T12:56:00.487Z,7.7
2018-08-19T12:57:01.938Z,7.7
2018-08-19T12:58:03.548Z,7.7
2018-08-19T12:59:05.135Z,7.8
2018-08-19T13:00:06.574Z,7.8
2018-08-19T13:01:08.023Z,7.8
2018-08-19T13:02:09.467Z,7.8
2018-08-19T13:03:11.093Z,7.8
2018-08-19T13:04:12.545Z,7.8
2018-08-19T13:05:13.996Z,7.8
2018-08-19T13:06:15.597Z,7.8
2018-08-19T13:07:17.203Z,7.8
2018-08-19T13:08:18.633Z,7.8
2018-08-19T13:09:20.255Z,7.8
2018-08-19T13:10:21.887Z,7.8
2018-08-19T13:11:23.496Z,7.8
2018-08-19T13:12:24.774Z,7.8
2018-08-19T13:13:26.387Z,7.8
2018-08-19T13:14:27.981Z,7.8
2018-08-19T13:15:29.646Z,7.8
2018-08-19T13:16:30.960Z,7.8
2018-08-19T13:17:32.579Z,7.8
2018-08-19T13:18:34.179Z,7.8
2018-08-19T13:19:35.795Z,7.8
2018-08-19T13:20:37.081Z,7.8
2018-08-19T13:21:38.705Z,7.8
2018-08-19T13:22:40.468Z,7.8
2018-08-19T13:23:42.118Z,7.8
2018-08-19T13:24:43.727Z,7.8
2018-08-19T13:25:45.190Z,7.8
2018-08-19T13:26:46.812Z,7.8
2018-08-19T13:27:48.272Z,7.8
2018-08-19T13:28:49.744Z,7.8
2018-08-19T13:29:51.349Z,7.8
2018-08-19T13:30:52.940Z,7.8
2018-08-19T13:31:54.579Z,7.8
2018-08-19T13:32:55.867Z,7.8
2018-08-19T13:33:57.366Z,7.8
2018-08-19T13:34:58.977Z,7.8
2018-08-19T13:36:00.436Z,7.8
2018-08-19T13:37:02.038Z,7.8
2018-08-19T13:38:03.650Z,7.8
2018-08-19T13:39:05.270Z,7.8
2018-08-19T13:40:06.875Z,7.8
2018-08-19T13:41:08.498Z,7.8
2018-08-19T13:42:09.956Z,7.8
2018-08-19T13:43:11.578Z,7.8
2018-08-19T13:44:13.171Z,7.8
2018-08-19T13:45:15.007Z,7.8
2018-08-19T13:46:16.266Z,7.8
2018-08-19T13:47:18.559Z,7.8
2018-08-19T13:48:20.195Z,7.8
2018-08-19T13:49:21.334Z,7.8
2018-08-19T13:50:22.620Z,7.8
2018-08-19T13:51:24.071Z,7.7
2018-08-19T13:52:25.729Z,7.7
2018-08-19T13:53:27.198Z,7.6
2018-08-19T13:54:28.816Z,7.5
2018-08-19T13:55:30.458Z,7.4
2018-08-19T13:56:32.063Z,7.4
2018-08-19T13:57:33.728Z,7.3
2018-08-19T13:58:35.193Z,7.2
2018-08-19T13:59:36.463Z,7.2
2018-08-19T14:00:37.893Z,7.2
2018-08-19T14:01:39.333Z,7.2
2018-08-19T14:02:40.629Z,7.2
2018-08-19T14:03:42.603Z,7.2
2018-08-19T14:04:44.097Z,7.2
2018-08-19T14:05:45.563Z,7.2
2018-08-19T14:06:47.022Z,7.2
2018-08-19T14:07:48.477Z,7.2